createdAt,value
2022-12-20T00:01:35.676Z,6.93
2022-12-20T00:04:04.235Z,7.40
2022-12-20T00:06:31.785Z,7.20
2022-12-20T00:09:01.552Z,6.80
2022-12-20T00:11:29.590Z,7.03
2022-12-20T00:13:56.856Z,6.77
2022-12-20T00:16:25.290Z,7.77
2022-12-20T00:18:53.579Z,8.10
2022-12-20T00:21:20.916Z,7.23
2022-12-20T00:23:48.268Z,6.23
2022-12-20T00:26:18.201Z,6.73
2022-12-20T00:28:46.237Z,6.43
2022-12-20T00:31:14.663Z,6.77
2022-12-20T00:37:32.968Z,6.53
2022-12-20T00:40:00.283Z,6.50
2022-12-20T00:42:28.982Z,6.67
2022-12-20T00:44:56.194Z,7.63
2022-12-20T00:47:24.130Z,8.20
2022-12-20T00:49:51.698Z,7.07
2022-12-20T00:52:19.271Z,5.87
2022-12-20T00:54:46.569Z,6.30
2022-12-20T00:57:13.865Z,7.07
2022-12-20T00:59:42.510Z,6.20
2022-12-20T01:05:01.856Z,6.37
2022-12-20T01:07:31.231Z,5.57
2022-12-20T01:09:58.467Z,6.80
2022-12-20T01:12:41.381Z,5.77
2022-12-20T01:15:30.648Z,6.23
2022-12-20T01:18:11.640Z,4.70
2022-12-20T01:20:38.875Z,6.03
2022-12-20T01:23:06.193Z,6.80
2022-12-20T01:25:33.490Z,5.30
2022-12-20T01:28:00.807Z,5.20
2022-12-20T01:30:28.055Z,5.07
2022-12-20T01:33:00.969Z,4.97
2022-12-20T01:35:29.743Z,3.60
2022-12-20T01:37:57.020Z,5.70
2022-12-20T01:40:24.330Z,5.40
2022-12-20T01:45:54.274Z,5.23
2022-12-20T01:48:23.036Z,5.67
2022-12-20T01:50:52.445Z,4.83
2022-12-20T01:53:21.701Z,6.67
2022-12-20T01:55:49.486Z,5.80
2022-12-20T01:58:18.842Z,6.83
2022-12-20T02:00:46.221Z,5.37
2022-12-20T02:03:14.555Z,7.10
2022-12-20T02:05:43.231Z,6.27
2022-12-20T02:08:13.435Z,6.13
2022-12-20T02:10:47.967Z,7.10
2022-12-20T02:13:22.581Z,6.50
2022-12-20T02:16:01.032Z,6.83
2022-12-20T02:18:35.868Z,6.90
2022-12-20T02:21:08.904Z,7.17
2022-12-20T02:23:46.309Z,6.97
2022-12-20T02:26:25.945Z,6.70
2022-12-20T02:29:03.613Z,6.83
2022-12-20T02:31:45.037Z,7.70
2022-12-20T02:34:12.570Z,7.73
2022-12-20T02:36:39.826Z,7.30
2022-12-20T02:39:07.307Z,6.77
2022-12-20T02:41:37.747Z,7.10
2022-12-20T02:47:53.142Z,7.73
2022-12-20T02:50:22.952Z,6.60
2022-12-20T02:52:51.523Z,6.33
2022-12-20T02:55:19.201Z,7.23
2022-12-20T02:57:56.138Z,6.73
2022-12-20T03:00:29.627Z,6.43
2022-12-20T03:03:04.926Z,5.90
2022-12-20T03:05:33.642Z,6.50
2022-12-20T03:08:00.924Z,5.07
2022-12-20T03:10:28.697Z,6.13
2022-12-20T03:13:18.167Z,6.40
2022-12-20T03:16:12.014Z,5.13
2022-12-20T03:18:40.744Z,7.17
2022-12-20T03:21:08.111Z,7.20
2022-12-20T03:23:35.349Z,6.23
2022-12-20T03:26:02.742Z,6.10
2022-12-20T03:28:38.074Z,5.37
2022-12-20T03:33:50.418Z,5.37
2022-12-20T03:36:17.914Z,6.13
2022-12-20T03:38:45.252Z,5.97
2022-12-20T03:41:13.321Z,5.80
2022-12-20T03:43:40.788Z,5.23
2022-12-20T03:46:15.241Z,6.27
2022-12-20T03:48:46.194Z,6.57
2022-12-20T03:51:16.373Z,6.63
2022-12-20T03:53:43.832Z,6.63
2022-12-20T03:56:12.387Z,6.13
2022-12-20T03:58:41.239Z,7.47
2022-12-20T04:01:19.282Z,4.77
2022-12-20T04:03:47.174Z,7.30
2022-12-20T04:06:15.988Z,7.27
2022-12-20T04:08:43.706Z,8.17
2022-12-20T04:11:12.919Z,7.87
2022-12-20T04:13:43.367Z,8.03
2022-12-20T04:16:10.770Z,7.17
2022-12-20T04:18:38.224Z,9.03
2022-12-20T04:21:11.499Z,7.90
2022-12-20T04:24:04.922Z,8.53
2022-12-20T04:26:56.535Z,7.33
2022-12-20T04:29:24.089Z,10.57
2022-12-20T04:31:52.349Z,11.30
2022-12-20T04:34:20.057Z,10.67
2022-12-20T04:36:49.279Z,12.63
2022-12-20T04:39:25.059Z,10.90
2022-12-20T04:42:13.989Z,11.03
2022-12-20T04:44:41.440Z,8.77
2022-12-20T04:47:10.620Z,13.07
2022-12-20T04:49:38.080Z,10.53
2022-12-20T04:52:05.809Z,10.40
2022-12-20T04:54:33.146Z,9.70
2022-12-20T04:57:13.941Z,11.50
2022-12-20T04:59:41.447Z,10.53
2022-12-20T05:02:14.589Z,10.17
2022-12-20T05:04:53.506Z,8.73
2022-12-20T05:07:22.960Z,9.53
2022-12-20T05:09:55.762Z,10.50
2022-12-20T05:12:24.490Z,11.83
2022-12-20T05:14:52.823Z,10.77
2022-12-20T05:17:22.606Z,10.60
2022-12-20T05:19:50.280Z,8.50
2022-12-20T05:22:17.812Z,10.37
2022-12-20T05:24:59.824Z,9.60
2022-12-20T05:27:32.704Z,10.60
2022-12-20T05:30:00.180Z,8.70
2022-12-20T05:32:28.778Z,11.93
2022-12-20T05:34:56.502Z,7.90
2022-12-20T05:37:46.745Z,10.40
2022-12-20T05:40:38.013Z,6.70
2022-12-20T05:43:07.479Z,8.13
2022-12-20T05:45:40.054Z,8.40
2022-12-20T05:48:13.736Z,7.03
2022-12-20T05:50:42.515Z,6.77
2022-12-20T05:53:44.891Z,7.17
2022-12-20T05:56:13.868Z,5.53
2022-12-20T05:58:42.511Z,6.30
2022-12-20T06:01:10.025Z,6.67
2022-12-20T06:03:38.885Z,5.53
2022-12-20T06:06:14.577Z,5.67
2022-12-20T06:08:43.707Z,5.60
2022-12-20T06:11:22.042Z,6.33
2022-12-20T06:14:12.033Z,5.97
2022-12-20T06:16:44.725Z,4.57
2022-12-20T06:19:17.695Z,5.50
2022-12-20T06:21:49.455Z,5.33
2022-12-20T06:24:19.828Z,5.43
2022-12-20T06:26:48.222Z,5.03
2022-12-20T06:29:16.835Z,5.30
2022-12-20T06:31:51.572Z,6.07
2022-12-20T06:34:19.036Z,5.77
2022-12-20T06:36:46.402Z,4.80
2022-12-20T06:39:19.258Z,5.80
2022-12-20T06:42:03.497Z,5.90
2022-12-20T06:44:32.225Z,5.27
2022-12-20T06:47:21.871Z,5.20
2022-12-20T06:50:07.216Z,4.90
2022-12-20T06:52:34.528Z,5.77
2022-12-20T06:55:01.825Z,4.70
2022-12-20T06:57:31.340Z,5.57
2022-12-20T07:00:00.731Z,5.30
2022-12-20T07:02:28.541Z,5.50
2022-12-20T07:04:56.058Z,4.30
2022-12-20T07:07:23.333Z,4.93
2022-12-20T07:09:50.685Z,5.67
2022-12-20T07:12:18.017Z,4.67
2022-12-20T07:17:22.597Z,4.50
2022-12-20T07:19:51.198Z,4.70
2022-12-20T07:22:18.697Z,4.50
2022-12-20T07:24:56.113Z,4.37
2022-12-20T07:30:53.879Z,5.67
2022-12-20T07:33:22.592Z,5.47
2022-12-20T07:35:54.498Z,4.83
2022-12-20T07:38:22.307Z,5.13
2022-12-20T07:40:49.742Z,4.63
2022-12-20T07:43:17.027Z,5.20
2022-12-20T07:45:44.363Z,4.33
2022-12-20T07:48:16.404Z,5.37
2022-12-20T07:50:48.738Z,5.63
2022-12-20T07:53:16.052Z,5.33
2022-12-20T07:55:43.428Z,6.50
2022-12-20T07:58:11.423Z,5.70
2022-12-20T08:00:39.301Z,6.00
2022-12-20T08:03:08.105Z,6.30
2022-12-20T08:05:35.878Z,6.47
2022-12-20T08:08:08.038Z,5.53
2022-12-20T08:10:35.521Z,5.87
2022-12-20T08:13:02.798Z,6.10
2022-12-20T08:15:30.325Z,5.87
2022-12-20T08:17:57.641Z,6.23
2022-12-20T08:20:24.983Z,6.03
2022-12-20T08:22:52.252Z,5.70
2022-12-20T08:25:21.144Z,5.37
2022-12-20T08:27:48.614Z,5.30
2022-12-20T08:30:16.166Z,6.83
2022-12-20T08:32:43.470Z,5.40
2022-12-20T08:35:11.172Z,5.93
2022-12-20T08:37:39.640Z,4.90
2022-12-20T08:40:07.688Z,4.57
2022-12-20T08:42:36.393Z,5.07
2022-12-20T08:45:23.219Z,5.53
2022-12-20T08:50:49.302Z,5.27
2022-12-20T08:53:16.653Z,6.13
2022-12-20T08:55:43.883Z,5.10
2022-12-20T08:58:12.513Z,5.37
2022-12-20T09:00:39.751Z,5.90
2022-12-20T09:03:07.235Z,5.90
2022-12-20T09:05:34.697Z,5.50
2022-12-20T09:08:02.011Z,5.97
2022-12-20T09:10:29.239Z,6.33
2022-12-20T09:12:56.605Z,6.67
2022-12-20T09:18:07.360Z,7.47
2022-12-20T09:20:34.661Z,6.80
2022-12-20T09:23:01.983Z,7.30
2022-12-20T09:25:29.417Z,7.83
2022-12-20T09:27:56.855Z,7.40
2022-12-20T09:30:30.335Z,8.67
2022-12-20T09:33:10.182Z,9.00
2022-12-20T09:35:48.437Z,8.23
2022-12-20T09:38:15.736Z,9.20
2022-12-20T09:40:46.167Z,8.53
2022-12-20T09:43:14.292Z,7.97
2022-12-20T09:45:41.612Z,8.30
2022-12-20T09:48:14.163Z,8.77
2022-12-20T09:50:47.588Z,7.80
2022-12-20T09:53:22.313Z,8.60
2022-12-20T09:55:53.230Z,8.10
2022-12-20T09:58:25.825Z,10.20
2022-12-20T10:00:54.561Z,10.23
2022-12-20T10:03:23.093Z,9.73
2022-12-20T10:05:54.125Z,10.73
2022-12-20T10:08:26.061Z,8.83
2022-12-20T10:11:00.637Z,11.10
2022-12-20T10:13:36.252Z,10.47
2022-12-20T10:16:08.449Z,11.23
2022-12-20T10:18:44.125Z,10.20
2022-12-20T10:21:18.025Z,11.63
2022-12-20T10:23:47.131Z,11.57
2022-12-20T10:26:14.711Z,11.37
2022-12-20T10:28:42.169Z,10.50
2022-12-20T10:31:13.425Z,9.73
2022-12-20T10:33:41.423Z,12.27
2022-12-20T10:36:27.406Z,11.63
2022-12-20T10:38:55.712Z,12.60
2022-12-20T10:41:24.027Z,12.77
2022-12-20T10:43:54.360Z,12.60
2022-12-20T10:50:25.249Z,13.83
2022-12-20T10:53:05.182Z,11.70
2022-12-20T10:55:36.493Z,12.83
2022-12-20T10:58:05.274Z,13.93
2022-12-20T11:00:33.298Z,11.17
2022-12-20T11:03:06.375Z,12.77
2022-12-20T11:05:33.815Z,13.80
2022-12-20T11:08:34.867Z,10.23
2022-12-20T11:11:10.201Z,12.03
2022-12-20T11:13:38.824Z,15.43
2022-12-20T11:16:06.372Z,15.60
2022-12-20T11:18:40.988Z,14.63
2022-12-20T11:21:25.940Z,16.03
2022-12-20T11:24:08.985Z,15.67
2022-12-20T11:26:53.214Z,16.90
2022-12-20T11:29:34.225Z,15.17
2022-12-20T11:32:06.153Z,16.67
2022-12-20T11:34:54.500Z,16.27
2022-12-20T11:37:22.702Z,14.50
2022-12-20T11:40:04.369Z,20.97
2022-12-20T11:42:35.693Z,16.33
2022-12-20T11:45:09.590Z,19.50
2022-12-20T11:47:55.147Z,21.20
2022-12-20T11:50:45.293Z,20.57
2022-12-20T11:53:17.387Z,21.93
2022-12-20T11:55:47.572Z,19.53
2022-12-20T11:58:19.416Z,15.60
2022-12-20T12:01:09.048Z,21.00
2022-12-20T12:04:01.832Z,22.00
2022-12-20T12:06:31.107Z,22.67
2022-12-20T12:09:04.758Z,23.17
2022-12-20T12:12:05.136Z,24.17
2022-12-20T12:14:28.410Z,22.43
2022-12-20T12:16:58.860Z,25.03
2022-12-20T12:19:30.298Z,25.07
2022-12-20T12:22:02.047Z,27.07
2022-12-20T12:24:30.580Z,27.00
2022-12-20T12:26:59.559Z,24.70
2022-12-20T12:29:36.130Z,27.37
2022-12-20T12:32:12.646Z,28.60
2022-12-20T12:35:00.096Z,26.87
2022-12-20T12:37:52.926Z,28.70
2022-12-20T12:40:50.525Z,25.80
2022-12-20T12:43:46.722Z,26.10
2022-12-20T12:46:15.786Z,30.57
2022-12-20T12:48:44.530Z,29.80
2022-12-20T12:51:23.743Z,31.70
2022-12-20T12:53:53.887Z,26.50
2022-12-20T12:56:47.393Z,31.13
2022-12-20T12:59:36.628Z,30.13
2022-12-20T13:05:39.809Z,28.93
2022-12-20T13:08:15.694Z,30.93
2022-12-20T13:11:07.002Z,31.37
2022-12-20T13:13:36.059Z,33.40
2022-12-20T13:16:14.360Z,30.33
2022-12-20T13:21:42.413Z,31.03
2022-12-20T13:24:39.951Z,32.97
2022-12-20T13:27:26.296Z,32.93
2022-12-20T13:33:49.976Z,34.10
2022-12-20T13:36:36.450Z,32.73
2022-12-20T13:39:05.574Z,32.23
2022-12-20T13:41:37.720Z,25.43
2022-12-20T13:44:20.148Z,33.77
2022-12-20T13:46:48.881Z,34.53
2022-12-20T13:49:24.879Z,37.27
2022-12-20T13:52:06.968Z,35.13
2022-12-20T13:54:34.239Z,31.20
2022-12-20T13:57:01.583Z,34.27
2022-12-20T13:59:50.153Z,36.10
2022-12-20T14:02:36.920Z,35.47
2022-12-20T14:05:15.692Z,34.53
2022-12-20T14:07:43.666Z,38.47
2022-12-20T14:10:18.104Z,38.93
2022-12-20T14:12:45.983Z,38.80
2022-12-20T14:15:22.105Z,40.33
2022-12-20T14:20:48.287Z,43.30
2022-12-20T14:23:16.861Z,41.40
2022-12-20T14:25:45.534Z,46.10
2022-12-20T14:28:36.980Z,44.57
2022-12-20T14:31:06.753Z,44.10
2022-12-20T14:33:49.212Z,45.43
2022-12-20T14:36:30.061Z,48.53
2022-12-20T14:38:57.530Z,45.83
2022-12-20T14:41:32.414Z,46.67
2022-12-20T14:44:01.833Z,45.70
2022-12-20T14:46:30.402Z,43.27
2022-12-20T14:49:17.260Z,48.37
2022-12-20T14:51:46.160Z,45.23
2022-12-20T14:54:56.210Z,46.60
2022-12-20T14:57:04.693Z,47.43
2022-12-20T14:59:31.879Z,46.27
2022-12-20T15:01:59.243Z,44.80
2022-12-20T15:08:17.399Z,48.60
2022-12-20T15:10:49.464Z,42.43
2022-12-20T15:13:17.897Z,46.93
2022-12-20T15:15:45.645Z,47.60
2022-12-20T15:18:13.583Z,39.80
2022-12-20T15:20:41.615Z,43.13
2022-12-20T15:23:17.815Z,40.73
2022-12-20T15:25:45.291Z,45.93
2022-12-20T15:28:14.114Z,45.67
2022-12-20T15:30:41.619Z,43.57
2022-12-20T15:33:27.917Z,45.40
2022-12-20T15:36:18.450Z,44.77
2022-12-20T15:39:12.175Z,42.63
2022-12-20T15:41:41.626Z,43.90
2022-12-20T15:44:13.593Z,45.27
2022-12-20T15:46:40.892Z,40.00
2022-12-20T15:49:10.651Z,44.03
2022-12-20T15:54:33.779Z,45.17
2022-12-20T15:57:02.089Z,40.67
2022-12-20T16:02:30.148Z,46.17
2022-12-20T16:05:12.269Z,45.03
2022-12-20T16:07:55.075Z,43.93
2022-12-20T16:10:23.908Z,45.50
2022-12-20T16:12:51.201Z,43.77
2022-12-20T16:15:20.832Z,42.17
2022-12-20T16:20:37.461Z,42.77
2022-12-20T16:23:30.829Z,40.73
2022-12-20T16:25:59.765Z,47.20
2022-12-20T16:28:27.191Z,45.80
2022-12-20T16:30:54.643Z,46.23
2022-12-20T16:36:40.076Z,41.40
2022-12-20T16:39:07.828Z,49.03
2022-12-20T16:41:36.754Z,45.53
2022-12-20T16:44:04.877Z,43.17
2022-12-20T16:46:33.389Z,45.70
2022-12-20T16:49:01.466Z,38.93
2022-12-20T16:51:29.799Z,43.27
2022-12-20T16:56:46.989Z,44.00
2022-12-20T16:59:20.636Z,44.77
2022-12-20T17:01:50.470Z,46.43
2022-12-20T17:04:19.064Z,44.83
2022-12-20T17:07:08.354Z,43.53
2022-12-20T17:12:44.826Z,44.23
2022-12-20T17:15:17.009Z,44.03
2022-12-20T17:17:44.277Z,48.07
2022-12-20T17:20:12.106Z,43.40
2022-12-20T17:22:39.427Z,45.20
2022-12-20T17:25:07.176Z,49.50
2022-12-20T17:27:38.946Z,48.90
2022-12-20T17:30:08.564Z,47.07
2022-12-20T17:32:35.821Z,47.50
2022-12-20T17:35:03.090Z,42.27
2022-12-20T17:37:46.475Z,47.97
2022-12-20T17:40:19.569Z,44.57
2022-12-20T17:42:46.888Z,40.40
2022-12-20T17:45:22.104Z,44.20
2022-12-20T17:47:49.607Z,50.00
2022-12-20T17:50:17.129Z,43.30
2022-12-20T17:52:44.832Z,50.30
2022-12-20T17:55:16.382Z,48.87
2022-12-20T17:57:43.623Z,48.13
2022-12-20T18:00:16.705Z,48.73
2022-12-20T18:02:45.560Z,45.73
2022-12-20T18:05:13.235Z,47.33
2022-12-20T18:07:40.579Z,51.23
2022-12-20T18:10:08.574Z,50.03
2022-12-20T18:12:37.665Z,26.93
2022-12-20T18:15:05.556Z,48.23
2022-12-20T18:17:32.811Z,48.93
2022-12-20T18:20:01.418Z,41.40
2022-12-20T18:22:28.834Z,47.57
2022-12-20T18:24:56.080Z,50.23
2022-12-20T18:27:30.184Z,51.33
2022-12-20T18:29:57.925Z,48.77
2022-12-20T18:32:25.385Z,47.07
2022-12-20T18:34:52.908Z,49.97
2022-12-20T18:37:21.512Z,33.10
2022-12-20T18:39:48.752Z,34.83
2022-12-20T18:42:16.033Z,47.47
2022-12-20T18:44:43.286Z,18.97
2022-12-20T18:47:10.583Z,43.57
2022-12-20T18:49:37.814Z,59.03
2022-12-20T18:52:05.152Z,51.07
2022-12-20T18:54:33.823Z,66.77
2022-12-20T18:57:38.421Z,78.00
2022-12-20T19:03:16.363Z,67.93
2022-12-20T19:05:43.801Z,56.20
2022-12-20T19:08:11.010Z,68.90
2022-12-20T19:10:39.588Z,60.77
2022-12-20T19:13:06.843Z,50.20
2022-12-20T19:18:23.603Z,50.83
2022-12-20T19:20:51.050Z,52.47
2022-12-20T19:23:18.295Z,50.20
2022-12-20T19:26:19.634Z,51.20
2022-12-20T19:32:23.795Z,42.97
2022-12-20T19:34:51.059Z,41.43
2022-12-20T19:37:18.618Z,40.23
2022-12-20T19:39:46.020Z,36.27
2022-12-20T19:42:28.647Z,27.17
2022-12-20T19:44:56.233Z,39.87
2022-12-20T19:47:25.480Z,31.47
2022-12-20T19:49:53.144Z,29.33
2022-12-20T19:52:28.617Z,34.90
2022-12-20T19:54:56.763Z,37.40
2022-12-20T19:57:23.972Z,36.63
2022-12-20T20:07:02.776Z,32.97
2022-12-20T20:09:30.064Z,31.77
2022-12-20T20:11:57.365Z,33.87
2022-12-20T20:14:24.720Z,35.47
2022-12-20T20:16:52.031Z,44.80
2022-12-20T20:19:19.633Z,51.33
2022-12-20T20:21:47.163Z,43.07
2022-12-20T20:24:15.995Z,44.23
2022-12-20T20:26:43.404Z,40.90
2022-12-20T20:29:10.652Z,30.77
2022-12-20T20:31:38.074Z,30.13
2022-12-20T20:34:05.393Z,20.20
2022-12-20T20:36:32.629Z,23.77
2022-12-20T20:39:00.216Z,24.40
2022-12-20T20:41:36.213Z,21.37
2022-12-20T20:44:03.585Z,21.23
2022-12-20T20:46:34.247Z,20.90
2022-12-20T20:49:01.681Z,17.47
2022-12-20T20:51:29.475Z,12.23
2022-12-20T20:53:57.244Z,14.67
2022-12-20T20:56:24.569Z,15.20
2022-12-20T20:58:57.721Z,19.17
2022-12-20T21:01:28.528Z,16.90
2022-12-20T21:03:57.155Z,15.83
2022-12-20T21:06:41.693Z,16.93
2022-12-20T21:09:10.398Z,15.40
2022-12-20T21:11:37.773Z,12.40
2022-12-20T21:14:06.688Z,13.93
2022-12-20T21:16:33.945Z,15.77
2022-12-20T21:19:01.268Z,12.63
2022-12-20T21:21:28.583Z,13.60
2022-12-20T21:23:59.078Z,11.37
2022-12-20T21:26:26.412Z,10.60
2022-12-20T21:28:57.293Z,10.73
2022-12-20T21:31:25.947Z,10.70
2022-12-20T21:33:53.223Z,10.70
2022-12-20T21:36:20.547Z,10.40
2022-12-20T21:38:48.363Z,10.37
2022-12-20T21:41:15.713Z,9.23
2022-12-20T21:43:43.039Z,9.00
2022-12-20T21:46:10.518Z,7.83
2022-12-20T21:48:39.543Z,7.97
2022-12-20T21:51:07.976Z,9.33
2022-12-20T21:53:35.369Z,9.63
2022-12-20T21:56:02.610Z,10.10
2022-12-20T21:58:30.917Z,8.37
2022-12-20T22:00:58.766Z,9.03
2022-12-20T22:03:26.764Z,9.73
2022-12-20T22:05:55.885Z,8.67
2022-12-20T22:08:23.878Z,7.00
2022-12-20T22:10:58.184Z,8.20
2022-12-20T22:13:25.612Z,9.00
2022-12-20T22:15:52.991Z,8.83
2022-12-20T22:18:20.333Z,9.03
2022-12-20T22:20:47.801Z,8.23
2022-12-20T22:23:16.378Z,7.93
2022-12-20T22:25:43.616Z,7.87
2022-12-20T22:28:12.226Z,8.37
2022-12-20T22:30:41.050Z,7.23
2022-12-20T22:33:08.370Z,7.20
2022-12-20T22:35:36.029Z,7.30
2022-12-20T22:38:03.267Z,6.97
2022-12-20T22:40:32.294Z,7.63
2022-12-20T22:42:59.520Z,7.53
2022-12-20T22:45:26.991Z,7.33
2022-12-20T22:47:54.213Z,7.30
2022-12-20T22:50:21.511Z,8.87
2022-12-20T22:52:48.721Z,7.23
2022-12-20T22:55:16.075Z,8.83
2022-12-20T22:57:44.647Z,8.60
2022-12-20T23:00:12.531Z,8.10
2022-12-20T23:02:40.498Z,8.33
2022-12-20T23:05:08.144Z,7.60
2022-12-20T23:07:35.577Z,8.90
2022-12-20T23:10:02.794Z,8.40
2022-12-20T23:12:30.211Z,8.60
2022-12-20T23:15:03.952Z,7.30
2022-12-20T23:17:32.792Z,6.93
2022-12-20T23:20:00.352Z,7.77
2022-12-20T23:22:27.660Z,9.43
2022-12-20T23:24:54.878Z,8.70
2022-12-20T23:27:22.095Z,8.00
2022-12-20T23:29:49.326Z,7.63
2022-12-20T23:32:17.983Z,8.03
2022-12-20T23:34:45.339Z,9.23
2022-12-20T23:37:12.538Z,9.53
2022-12-20T23:39:42.863Z,8.97
2022-12-20T23:42:10.226Z,8.67
2022-12-20T23:44:37.425Z,7.67
2022-12-20T23:47:05.111Z,8.87
2022-12-20T23:49:34.029Z,8.03
2022-12-20T23:52:01.477Z,8.47
2022-12-20T23:54:28.689Z,8.87
2022-12-20T23:56:56.110Z,8.40
2022-12-20T23:59:23.332Z,8.67
